KCWA/CWA METAR and TAF weather

Enter ICAO airport designator
Station Type Date Time Source
KCWA METAR 2021/05/10 00:47 UTC NOAA

KCWA 100047Z 08008KT 10SM OVC070 09/00 A3003


Station Type Date Time Source
KCWA Decoded METAR 2021/05/10 00:47 UTC NOAA

Mosinee / Central Wisconsin, WI, United States (KCWA) 44-47N 089-40W
May 09, 2021 - 08:47 PM EDT / 2021.05.10 0047 UTC
Wind: from the E (080 degrees) at 9 MPH (8 KT):0
Visibility: 10 mile(s):0
Sky conditions: overcast
Temperature: 48 F (9 C)
Dew Point: 32 F (0 C)
Relative Humidity: 53%
Pressure (altimeter): 30.03 in. Hg (1016 hPa)
ob: KCWA 100047Z 08008KT 10SM OVC070 09/00 A3003
cycle: 1

Station Type Date Time Source
KCWA TAF 2021/05/09 19:24 UTC NOAA

TAF
AMD KCWA 091921Z 0919/1018 VRB05KT P6SM BKN070
FM100300 03004KT P6SM SCT060
FM100800 01005KT P6SM SCT250
FM101600 35007KT P6SM SCT050

Example: see airport list